Time;durP1;ratioP1;P1;durP2;ratioP2;P2;SDS_P1;SDS_P2;PMS_P1;PMS_P2;Temp;Humidity;BMP_temperature;BMP_pressure;BME280_temperature;BME280_humidity;BME280_pressure;Samples;Min_cycle;Max_cycle;Signal;HPM_P1;HPM_P2
2022/08/22 06:07:51;;;;;;;1.67;0.98;;;;;;;;;;5688521;23;20063;-66
2022/08/22 06:10:24;;;;;;;1.67;1.10;;;;;;;;;;4932283;29;20043;-66
2022/08/22 06:12:57;;;;;;;2.72;1.25;;;;;;;;;;4931170;29;20027;-66
2022/08/22 06:15:27;;;;;;;1.90;1.05;;;;;;;;;;4934910;29;20426;-66
2022/08/22 06:17:56;;;;;;;2.25;1.30;;;;;;;;;;4936097;29;20019;-67
2022/08/22 06:20:25;;;;;;;2.28;1.42;;;;;;;;;;4935849;29;20034;-66
2022/08/22 06:22:53;;;;;;;5.82;1.80;;;;;;;;;;4934763;29;20031;-66
2022/08/22 06:25:27;;;;;;;1.75;1.13;;;;;;;;;;4935554;29;20035;-67
2022/08/22 06:27:55;;;;;;;1.55;1.20;;;;;;;;;;4935531;29;20027;-66
2022/08/22 06:30:23;;;;;;;3.58;1.42;;;;;;;;;;4934782;29;20028;-66
2022/08/22 06:32:52;;;;;;;2.30;1.50;;;;;;;;;;4935154;29;20028;-67
2022/08/22 06:35:23;;;;;;;2.47;1.27;;;;;;;;;;4934991;29;20505;-67
2022/08/22 06:37:51;;;;;;;2.58;1.50;;;;;;;;;;4935388;29;20028;-66
2022/08/22 06:40:18;;;;;;;1.17;1.00;;;;;;;;;;4935003;29;20026;-66
2022/08/22 06:42:47;;;;;;;2.22;1.10;;;;;;;;;;4935372;29;20020;-66
2022/08/22 06:45:18;;;;;;;2.97;1.05;;;;;;;;;;4935210;29;20031;-67
2022/08/22 06:47:50;;;;;;;2.78;1.75;;;;;;;;;;4930985;29;20030;-66
2022/08/22 06:50:33;;;;;;;3.10;1.60;;;;;;;;;;4932445;29;20405;-66
2022/08/22 06:53:20;;;;;;;3.17;1.48;;;;;;;;;;4934236;29;20028;-67
2022/08/22 06:55:52;;;;;;;7.70;1.30;;;;;;;;;;4934454;29;20042;-67
2022/08/22 06:58:20;;;;;;;13.63;1.48;;;;;;;;;;4903721;28;20462;-67
2022/08/22 07:00:51;;;;;;;19.40;2.25;;;;;;;;;;4916571;29;20036;-67
2022/08/22 07:03:25;;;;;;;9.88;2.33;;;;;;;;;;4934488;29;20506;-67
2022/08/22 07:05:53;;;;;;;37.30;2.88;;;;;;;;;;4935187;29;20038;-67
2022/08/22 07:08:20;;;;;;;14.82;2.17;;;;;;;;;;4933484;29;20051;-67
2022/08/22 07:10:55;;;;;;;12.02;1.90;;;;;;;;;;4934789;29;20048;-67
2022/08/22 07:13:24;;;;;;;10.60;2.00;;;;;;;;;;4934977;29;20024;-67
2022/08/22 07:15:52;;;;;;;71.13;8.27;;;;;;;;;;4934347;29;20128;-67
2022/08/22 07:18:20;;;;;;;4.22;2.03;;;;;;;;;;4933066;29;20019;-67
2022/08/22 07:20:49;;;;;;;2.75;1.75;;;;;;;;;;4934945;29;20043;-67
2022/08/22 07:23:34;;;;;;;2.60;1.52;;;;;;;;;;4933619;29;20059;-67
2022/08/22 07:26:19;;;;;;;3.20;1.98;;;;;;;;;;4933586;29;20036;-67
2022/08/22 07:28:49;;;;;;;3.30;1.80;;;;;;;;;;4934356;29;20026;-67
2022/08/22 07:31:20;;;;;;;1.53;1.33;;;;;;;;;;4934204;29;20513;-67
2022/08/22 07:33:48;;;;;;;1.58;1.23;;;;;;;;;;4933834;29;20027;-66
2022/08/22 07:36:17;;;;;;;15.48;2.45;;;;;;;;;;4935598;29;20023;-67
2022/08/22 07:38:59;;;;;;;4.90;1.50;;;;;;;;;;4936109;29;20509;-67
2022/08/22 07:41:33;;;;;;;4.53;1.40;;;;;;;;;;4933991;28;20040;-67
2022/08/22 07:44:07;;;;;;;3.40;1.80;;;;;;;;;;4934571;29;20405;-67
2022/08/22 07:47:05;;;;;;;3.50;1.20;;;;;;;;;;4933461;29;20035;-67
2022/08/22 07:49:35;;;;;;;4.18;1.20;;;;;;;;;;4904033;29;20044;-67
2022/08/22 07:52:01;;;;;;;;;;;;;;;;;;4908813;29;20126;-67
2022/08/22 07:54:43;;;;;;;1.45;1.20;;;;;;;;;;4906967;29;19916;-67
2022/08/22 07:57:20;;;;;;;4.57;1.27;;;;;;;;;;4908732;29;20029;-67
2022/08/22 07:59:48;;;;;;;4.57;1.83;;;;;;;;;;4912996;29;20044;-67
2022/08/22 08:02:16;;;;;;;5.78;1.60;;;;;;;;;;4911351;29;20506;-67
2022/08/22 08:04:42;;;;;;;2.13;1.10;;;;;;;;;;4895299;29;20039;-67
2022/08/22 08:07:11;;;;;;;2.30;1.38;;;;;;;;;;4893868;29;20033;-67
2022/08/22 08:09:58;;;;;;;1.45;1.30;;;;;;;;;;4907925;29;20048;-67
2022/08/22 08:12:30;;;;;;;3.95;1.40;;;;;;;;;;4912952;29;20050;-67
2022/08/22 08:14:57;;;;;;;1.77;1.50;;;;;;;;;;4907267;29;20139;-67
2022/08/22 08:17:29;;;;;;;2.05;1.38;;;;;;;;;;4894149;29;20457;-67
2022/08/22 08:19:56;;;;;;;1.95;1.10;;;;;;;;;;4907245;29;20486;-66
2022/08/22 08:22:24;;;;;;;2.38;1.33;;;;;;;;;;4909832;29;20043;-67
2022/08/22 08:24:51;;;;;;;4.18;1.08;;;;;;;;;;4921032;29;20044;-65
2022/08/22 08:30:12;;;;;;;9.45;1.70;;;;;;;;;;4933379;29;20039;-67
2022/08/22 08:32:39;;;;;;;6.10;1.52;;;;;;;;;;4933686;29;20034;-67
2022/08/22 08:35:26;;;;;;;4.10;1.30;;;;;;;;;;4936260;29;20023;-67
2022/08/22 08:37:53;;;;;;;3.05;1.27;;;;;;;;;;4923052;29;20082;-67
2022/08/22 08:40:39;;;;;;;4.40;2.35;;;;;;;;;;4918573;29;20032;-67
2022/08/22 08:43:49;;;;;;;2.88;1.50;;;;;;;;;;4936952;28;20040;-67
2022/08/22 08:46:14;;;;;;;5.85;1.63;;;;;;;;;;4938287;29;20043;-67
2022/08/22 08:48:40;;;;;;;2.15;1.30;;;;;;;;;;4937393;29;20035;-66
2022/08/22 08:51:09;;;;;;;1.20;1.10;;;;;;;;;;4936911;29;20500;-67
2022/08/22 08:53:51;;;;;;;4.10;1.00;;;;;;;;;;4934573;29;20032;-67
2022/08/22 08:56:21;;;;;;;2.05;1.25;;;;;;;;;;4937317;29;20031;-67
2022/08/22 08:59:02;;;;;;;6.57;3.35;;;;;;;;;;4930628;29;20558;-67
2022/08/22 09:01:29;;;;;;;0.80;0.80;;;;;;;;;;4935353;29;20050;-67
2022/08/22 09:04:09;;;;;;;1.52;0.82;;;;;;;;;;4936566;29;20063;-67
2022/08/22 09:06:56;;;;;;;0.80;0.80;;;;;;;;;;4936630;29;20083;-67
2022/08/22 09:09:33;;;;;;;1.70;0.93;;;;;;;;;;4935854;29;20039;-67
2022/08/22 09:12:17;;;;;;;2.30;0.50;;;;;;;;;;4937013;29;20062;-67
2022/08/22 09:14:49;;;;;;;1.75;0.80;;;;;;;;;;4937429;29;20030;-67
2022/08/22 09:17:22;;;;;;;1.92;1.10;;;;;;;;;;4934172;29;20027;-67
2022/08/22 09:20:20;;;;;;;1.38;0.70;;;;;;;;;;4935201;29;20032;-66
2022/08/22 09:22:56;;;;;;;2.53;0.70;;;;;;;;;;4918286;29;20036;-67
2022/08/22 09:25:40;;;;;;;1.17;0.70;;;;;;;;;;4903759;29;20040;-67
2022/08/22 09:28:19;;;;;;;1.77;0.90;;;;;;;;;;4919097;29;20042;-66
2022/08/22 09:30:51;;;;;;;1.98;0.80;;;;;;;;;;4931864;29;20054;-65
2022/08/22 09:33:19;;;;;;;2.55;0.68;;;;;;;;;;4921739;29;20525;-67
2022/08/22 09:35:52;;;;;;;0.50;0.50;;;;;;;;;;4918872;29;20040;-66
2022/08/22 09:38:21;;;;;;;1.02;0.90;;;;;;;;;;4926103;29;20043;-66
2022/08/22 09:40:50;;;;;;;1.07;0.80;;;;;;;;;;4915491;29;20028;-66
2022/08/22 09:43:37;;;;;;;2.28;0.80;;;;;;;;;;4915740;29;20021;-66
2022/08/22 09:46:22;;;;;;;2.40;1.00;;;;;;;;;;4934370;29;20031;-66
2022/08/22 09:49:01;;;;;;;1.38;0.68;;;;;;;;;;4933606;29;20032;-66
2022/08/22 09:51:37;;;;;;;1.33;0.68;;;;;;;;;;4914930;29;20052;-66
2022/08/22 09:54:06;;;;;;;1.10;0.80;;;;;;;;;;4915215;29;20024;-66
2022/08/22 09:56:49;;;;;;;0.98;0.70;;;;;;;;;;4916425;29;20028;-66
2022/08/22 09:59:35;;;;;;;0.98;0.75;;;;;;;;;;4936113;29;20040;-66
2022/08/22 10:02:12;;;;;;;2.78;0.60;;;;;;;;;;4936057;29;20038;-66
2022/08/22 10:04:44;;;;;;;0.73;0.65;;;;;;;;;;4935843;29;20634;-66
2022/08/22 10:07:31;;;;;;;2.63;0.70;;;;;;;;;;4936225;28;20039;-66
2022/08/22 10:10:10;;;;;;;1.30;0.77;;;;;;;;;;4934051;29;20052;-66
2022/08/22 10:12:44;;;;;;;0.93;0.70;;;;;;;;;;4933998;29;20034;-66
2022/08/22 10:15:36;;;;;;;0.60;0.60;;;;;;;;;;4919372;29;20446;-66
2022/08/22 10:18:05;;;;;;;0.60;0.60;;;;;;;;;;4857982;29;20144;-66
2022/08/22 10:20:55;;;;;;;2.10;0.70;;;;;;;;;;4861321;29;20037;-66
2022/08/22 10:23:35;;;;;;;4.63;0.75;;;;;;;;;;4858273;29;20048;-66
2022/08/22 10:26:25;;;;;;;1.73;0.70;;;;;;;;;;4858609;29;20037;-66
2022/08/22 10:29:01;;;;;;;0.98;0.63;;;;;;;;;;4858360;29;20476;-66
2022/08/22 10:31:40;;;;;;;2.40;0.82;;;;;;;;;;4858010;29;20049;-66
2022/08/22 10:34:13;;;;;;;1.42;0.80;;;;;;;;;;4874260;29;20462;-66
2022/08/22 10:36:58;;;;;;;12.27;1.15;;;;;;;;;;4876407;29;20045;-66
2022/08/22 10:39:32;;;;;;;2.10;0.77;;;;;;;;;;4877005;29;20072;-66
2022/08/22 10:42:03;;;;;;;8.43;1.42;;;;;;;;;;4876724;29;20037;-66
2022/08/22 10:44:39;;;;;;;1.55;0.70;;;;;;;;;;4876511;29;20054;-66
2022/08/22 10:47:07;;;;;;;2.40;0.70;;;;;;;;;;4876188;29;20041;-66
2022/08/22 10:49:45;;;;;;;0.85;0.57;;;;;;;;;;4876453;29;20037;-66
2022/08/22 10:52:19;;;;;;;0.50;0.50;;;;;;;;;;4875271;29;20059;-66
2022/08/22 10:54:47;;;;;;;1.23;0.68;;;;;;;;;;4894876;29;20038;-66
2022/08/22 10:57:19;;;;;;;2.78;0.47;;;;;;;;;;4923097;29;20015;-66
2022/08/22 10:59:52;;;;;;;2.22;0.70;;;;;;;;;;4934412;29;20032;-66
2022/08/22 11:02:35;;;;;;;1.42;0.77;;;;;;;;;;4934372;29;20401;-65
2022/08/22 11:05:01;;;;;;;1.58;0.60;;;;;;;;;;4932760;29;20035;-67
2022/08/22 11:07:28;;;;;;;2.33;0.63;;;;;;;;;;4934911;29;20031;-65
2022/08/22 11:09:58;;;;;;;5.82;0.75;;;;;;;;;;4934711;29;20422;-66
2022/08/22 11:12:31;;;;;;;0.57;0.57;;;;;;;;;;4934974;29;20035;-66
2022/08/22 11:15:01;;;;;;;0.90;0.70;;;;;;;;;;4934625;29;20401;-67
2022/08/22 11:17:27;;;;;;;0.60;0.60;;;;;;;;;;4934889;29;20031;-66
2022/08/22 11:19:53;;;;;;;0.82;0.70;;;;;;;;;;4934713;29;20016;-66
2022/08/22 11:22:38;;;;;;;0.50;0.50;;;;;;;;;;4934776;29;20032;-67
2022/08/22 11:25:05;;;;;;;0.60;0.60;;;;;;;;;;4934676;29;20034;-66
2022/08/22 11:27:31;;;;;;;0.85;0.50;;;;;;;;;;4933693;29;20164;-66
2022/08/22 11:30:00;;;;;;;0.82;0.60;;;;;;;;;;4934406;29;20027;-64
2022/08/22 11:32:45;;;;;;;0.93;0.65;;;;;;;;;;4934613;29;20026;-66
2022/08/22 11:35:22;;;;;;;1.13;0.73;;;;;;;;;;4934728;29;20020;-66
2022/08/22 11:37:53;;;;;;;0.73;0.73;;;;;;;;;;4932017;29;20524;-67
2022/08/22 11:40:39;;;;;;;0.98;0.68;;;;;;;;;;4933466;29;20024;-66
2022/08/22 11:43:24;;;;;;;2.13;0.70;;;;;;;;;;4934685;29;20038;-66
2022/08/22 11:45:52;;;;;;;2.67;0.80;;;;;;;;;;4934217;29;20030;-66
2022/08/22 11:48:37;;;;;;;2.08;0.60;;;;;;;;;;4933737;29;20086;-67
2022/08/22 11:51:13;;;;;;;0.63;0.60;;;;;;;;;;4929692;29;20058;-66
2022/08/22 11:54:02;;;;;;;2.63;0.60;;;;;;;;;;4934319;29;20019;-66
2022/08/22 11:56:35;;;;;;;0.77;0.55;;;;;;;;;;4945998;29;20509;-66
2022/08/22 11:59:04;;;;;;;3.53;0.60;;;;;;;;;;4927612;29;20019;-67
2022/08/22 12:01:40;;;;;;;1.48;0.65;;;;;;;;;;4933610;29;20030;-66
2022/08/22 12:04:06;;;;;;;12.70;1.02;;;;;;;;;;4937210;29;20378;-67
2022/08/22 12:06:50;;;;;;;1.60;0.98;;;;;;;;;;4945274;29;20042;-66
2022/08/22 12:09:22;;;;;;;2.28;0.98;;;;;;;;;;4937327;28;20039;-66
2022/08/22 12:11:58;;;;;;;1.13;0.52;;;;;;;;;;4933503;29;20058;-66
2022/08/22 12:14:30;;;;;;;1.40;0.77;;;;;;;;;;4936974;29;20023;-66
2022/08/22 12:16:57;;;;;;;2.33;1.15;;;;;;;;;;4952645;29;20019;-66
2022/08/22 12:19:41;;;;;;;5.40;0.77;;;;;;;;;;4955139;29;20027;-65
2022/08/22 12:22:26;;;;;;;3.08;0.70;;;;;;;;;;4937910;29;20032;-65
2022/08/22 12:25:01;;;;;;;1.90;0.98;;;;;;;;;;4937679;29;20020;-67
2022/08/22 12:27:44;;;;;;;2.30;0.63;;;;;;;;;;4937414;29;20035;-67
2022/08/22 12:30:11;;;;;;;6.35;0.95;;;;;;;;;;4937924;29;20497;-66
2022/08/22 12:33:10;;;;;;;3.50;0.90;;;;;;;;;;4946684;29;20037;-66
2022/08/22 12:36:05;;;;;;;2.72;0.95;;;;;;;;;;4884438;29;20063;-66
2022/08/22 12:38:36;;;;;;;0.82;0.50;;;;;;;;;;4822323;29;20042;-66
2022/08/22 12:41:20;;;;;;;0.75;0.50;;;;;;;;;;4823506;29;20026;-66
2022/08/22 12:43:56;;;;;;;1.92;0.63;;;;;;;;;;4822883;29;20062;-67
2022/08/22 12:46:31;;;;;;;1.25;0.65;;;;;;;;;;4823064;29;20038;-66
2022/08/22 12:49:05;;;;;;;1.90;0.60;;;;;;;;;;4823109;29;20062;-66
2022/08/22 12:51:37;;;;;;;1.02;0.65;;;;;;;;;;4821616;29;20056;-66
2022/08/22 12:54:19;;;;;;;2.33;0.60;;;;;;;;;;4822937;29;20088;-67
2022/08/22 12:56:52;;;;;;;2.25;0.60;;;;;;;;;;4822614;29;20047;-67
2022/08/22 12:59:21;;;;;;;0.60;0.60;;;;;;;;;;4822780;29;20054;-67
2022/08/22 13:01:49;;;;;;;2.38;0.60;;;;;;;;;;4822971;29;20038;-66
2022/08/22 13:04:18;;;;;;;0.80;0.50;;;;;;;;;;4823154;29;20426;-66
2022/08/22 13:06:48;;;;;;;0.73;0.60;;;;;;;;;;4822859;29;20022;-66
2022/08/22 13:09:18;;;;;;;0.47;0.47;;;;;;;;;;4822867;29;20042;-66
2022/08/22 13:11:50;;;;;;;0.82;0.50;;;;;;;;;;4852155;29;20057;-66
2022/08/22 13:14:20;;;;;;;0.80;0.52;;;;;;;;;;4891735;29;20343;-66
2022/08/22 13:16:53;;;;;;;2.28;0.55;;;;;;;;;;4936476;29;20028;-67
2022/08/22 13:19:22;;;;;;;0.60;0.50;;;;;;;;;;4936769;29;20490;-66
2022/08/22 13:21:54;;;;;;;0.50;0.50;;;;;;;;;;4936618;29;20030;-67
2022/08/22 13:24:25;;;;;;;1.38;0.70;;;;;;;;;;4936742;29;20039;-66
2022/08/22 13:26:55;;;;;;;0.47;0.40;;;;;;;;;;4936438;29;20478;-66
2022/08/22 13:29:25;;;;;;;0.95;0.60;;;;;;;;;;4936473;29;20031;-66
2022/08/22 13:31:52;;;;;;;0.63;0.50;;;;;;;;;;4935699;29;20050;-66
2022/08/22 13:34:39;;;;;;;0.73;0.52;;;;;;;;;;4936791;29;20043;-66
2022/08/22 13:37:06;;;;;;;1.20;0.52;;;;;;;;;;4936693;29;20039;-67
2022/08/22 13:39:35;;;;;;;0.98;0.40;;;;;;;;;;4936413;29;20027;-66
2022/08/22 13:42:03;;;;;;;1.08;0.50;;;;;;;;;;4936710;29;20030;-66
2022/08/22 13:44:35;;;;;;;0.70;0.50;;;;;;;;;;4936798;29;20027;-66
2022/08/22 13:47:05;;;;;;;1.27;0.57;;;;;;;;;;4936313;29;20512;-66
2022/08/22 13:49:32;;;;;;;0.68;0.60;;;;;;;;;;4936584;29;20058;-66
2022/08/22 13:51:58;;;;;;;0.95;0.68;;;;;;;;;;4936611;29;20050;-66
2022/08/22 13:54:37;;;;;;;0.50;0.50;;;;;;;;;;4936411;29;20026;-66
2022/08/22 13:57:08;;;;;;;0.55;0.50;;;;;;;;;;4927527;29;20406;-66
2022/08/22 13:59:43;;;;;;;2.63;0.52;;;;;;;;;;4959872;28;20079;-66
2022/08/22 14:02:12;;;;;;;0.73;0.50;;;;;;;;;;4935451;29;20042;-67
2022/08/22 14:04:41;;;;;;;5.10;0.70;;;;;;;;;;4936101;29;20031;-66
2022/08/22 14:07:10;;;;;;;3.72;0.73;;;;;;;;;;4930892;29;20032;-66
2022/08/22 14:09:52;;;;;;;2.85;0.85;;;;;;;;;;4916429;29;20042;-66
2022/08/22 14:12:22;;;;;;;0.73;0.60;;;;;;;;;;4916872;29;20038;-66
2022/08/22 14:14:54;;;;;;;1.38;0.57;;;;;;;;;;4917133;29;20031;-66
2022/08/22 14:17:23;;;;;;;0.93;0.52;;;;;;;;;;4916476;29;20398;-67
2022/08/22 14:20:11;;;;;;;0.70;0.60;;;;;;;;;;4924600;29;20050;-65
2022/08/22 14:22:39;;;;;;;0.93;0.50;;;;;;;;;;4935648;29;20036;-66
2022/08/22 14:25:25;;;;;;;1.05;0.50;;;;;;;;;;4935245;29;20024;-66
2022/08/22 14:27:59;;;;;;;0.68;0.60;;;;;;;;;;4935054;28;20376;-67
2022/08/22 14:30:49;;;;;;;0.90;0.60;;;;;;;;;;4934963;29;20031;-66
2022/08/22 14:33:21;;;;;;;2.30;0.50;;;;;;;;;;4934925;28;20047;-67
2022/08/22 14:35:54;;;;;;;0.55;0.50;;;;;;;;;;4934141;29;20026;-66
2022/08/22 14:38:28;;;;;;;1.95;0.60;;;;;;;;;;4934909;29;20034;-69
2022/08/22 14:40:56;;;;;;;0.95;0.50;;;;;;;;;;4934437;29;20501;-66
2022/08/22 14:43:28;;;;;;;4.13;0.52;;;;;;;;;;4935268;29;20038;-66
2022/08/22 14:46:05;;;;;;;1.45;0.60;;;;;;;;;;4937600;29;20688;-66
2022/08/22 14:48:51;;;;;;;0.80;0.50;;;;;;;;;;4925636;29;20050;-66
2022/08/22 14:51:21;;;;;;;0.50;0.50;;;;;;;;;;4931125;29;20051;-67
2022/08/22 14:53:48;;;;;;;0.50;0.50;;;;;;;;;;4934794;29;20090;-66
2022/08/22 14:56:17;;;;;;;2.97;0.45;;;;;;;;;;4935053;29;20438;-65
2022/08/22 14:58:52;;;;;;;0.93;0.55;;;;;;;;;;4959278;28;20254;-66
2022/08/22 15:01:20;;;;;;;1.60;0.50;;;;;;;;;;4934795;29;20038;-66
2022/08/22 15:04:00;;;;;;;0.50;0.50;;;;;;;;;;4934826;29;20026;-66
2022/08/22 15:06:31;;;;;;;1.00;0.50;;;;;;;;;;4934683;29;20028;-64
2022/08/22 15:08:59;;;;;;;2.83;0.63;;;;;;;;;;4934564;29;20050;-66
2022/08/22 15:11:27;;;;;;;1.73;0.43;;;;;;;;;;4935111;29;20047;-66
2022/08/22 15:13:56;;;;;;;1.05;0.45;;;;;;;;;;4927218;29;20028;-66
2022/08/22 15:16:27;;;;;;;0.73;0.50;;;;;;;;;;4916611;29;20032;-66
2022/08/22 15:18:54;;;;;;;2.20;0.50;;;;;;;;;;4916544;29;20016;-66
2022/08/22 15:21:29;;;;;;;1.25;0.60;;;;;;;;;;4917690;29;20040;-66
2022/08/22 15:24:00;;;;;;;0.52;0.47;;;;;;;;;;4934341;29;20032;-70
2022/08/22 15:26:35;;;;;;;0.22;0.22;;;;;;;;;;4965973;28;20039;-70
2022/08/22 15:29:06;;;;;;;0.57;0.45;;;;;;;;;;4925587;29;20034;-70
2022/08/22 15:31:32;;;;;;;;;;;;;;;;;;4921081;29;20086;-70
2022/08/22 15:34:06;;;;;;;0.90;0.50;;;;;;;;;;4934704;29;19925;-70
2022/08/22 15:36:32;;;;;;;0.47;0.43;;;;;;;;;;4935171;29;20028;-70
2022/08/22 15:39:19;;;;;;;0.68;0.50;;;;;;;;;;4935403;29;20498;-70
2022/08/22 15:41:46;;;;;;;0.63;0.40;;;;;;;;;;4936957;29;20383;-70
2022/08/22 15:44:23;;;;;;;0.47;0.47;;;;;;;;;;4921009;29;20052;-69
2022/08/22 15:46:53;;;;;;;0.57;0.38;;;;;;;;;;4937389;29;20082;-70
2022/08/22 15:49:19;;;;;;;1.17;0.40;;;;;;;;;;4937032;29;20457;-70
2022/08/22 15:51:52;;;;;;;1.75;0.50;;;;;;;;;;4936609;29;20048;-70
2022/08/22 15:54:23;;;;;;;0.35;0.35;;;;;;;;;;4937224;29;20035;-70
2022/08/22 15:56:52;;;;;;;0.82;0.50;;;;;;;;;;4936967;29;20031;-70
2022/08/22 15:59:21;;;;;;;1.65;0.40;;;;;;;;;;4923027;29;20044;-69
2022/08/22 16:01:52;;;;;;;2.15;0.60;;;;;;;;;;4936930;29;20031;-70
2022/08/22 16:04:31;;;;;;;0.40;0.40;;;;;;;;;;4936539;29;20034;-70
2022/08/22 16:07:00;;;;;;;1.10;0.40;;;;;;;;;;4936839;29;20043;-70
2022/08/22 16:09:31;;;;;;;0.55;0.45;;;;;;;;;;4936453;29;20051;-70
2022/08/22 16:11:58;;;;;;;0.60;0.30;;;;;;;;;;4936700;29;20066;-70
2022/08/22 16:14:33;;;;;;;2.22;0.50;;;;;;;;;;4936610;29;20038;-70
2022/08/22 16:17:03;;;;;;;0.73;0.50;;;;;;;;;;4936446;29;20058;-70
2022/08/22 16:19:30;;;;;;;0.57;0.55;;;;;;;;;;4923476;29;20032;-70
2022/08/22 16:21:58;;;;;;;0.50;0.50;;;;;;;;;;4919538;29;20024;-70
2022/08/22 16:24:24;;;;;;;0.85;0.45;;;;;;;;;;4919397;29;20487;-70
2022/08/22 16:26:51;;;;;;;2.08;0.50;;;;;;;;;;4919544;29;20075;-69
2022/08/22 16:29:39;;;;;;;1.00;0.50;;;;;;;;;;4919343;29;20434;-70
2022/08/22 16:32:07;;;;;;;1.27;0.75;;;;;;;;;;4919400;29;20050;-70
2022/08/22 16:34:37;;;;;;;0.95;0.47;;;;;;;;;;4918964;29;20025;-70
2022/08/22 16:37:03;;;;;;;0.80;0.40;;;;;;;;;;4919568;29;20020;-70
2022/08/22 16:39:32;;;;;;;0.93;0.50;;;;;;;;;;4919483;29;20028;-70
2022/08/22 16:42:14;;;;;;;3.45;0.50;;;;;;;;;;4919247;29;20020;-70
2022/08/22 16:45:07;;;;;;;1.85;0.55;;;;;;;;;;4934081;29;20028;-70
2022/08/22 16:47:40;;;;;;;0.85;0.60;;;;;;;;;;4919010;29;20028;-70
2022/08/22 16:50:09;;;;;;;1.15;0.60;;;;;;;;;;4918807;29;20388;-70
2022/08/22 16:52:49;;;;;;;2.03;0.60;;;;;;;;;;4918549;29;20026;-69
2022/08/22 16:55:28;;;;;;;1.10;0.40;;;;;;;;;;4918955;29;20406;-69
2022/08/22 16:57:59;;;;;;;0.40;0.40;;;;;;;;;;4930568;29;20037;-69
2022/08/22 17:00:31;;;;;;;0.93;0.50;;;;;;;;;;4937688;29;20038;-70
2022/08/22 17:03:04;;;;;;;3.88;0.73;;;;;;;;;;4937875;29;20043;-70
2022/08/22 17:05:31;;;;;;;4.47;0.52;;;;;;;;;;4937712;29;20024;-70
2022/08/22 17:08:17;;;;;;;0.40;0.40;;;;;;;;;;4937943;29;20043;-70
2022/08/22 17:10:59;;;;;;;0.50;0.40;;;;;;;;;;4933697;29;20050;-70
2022/08/22 17:13:32;;;;;;;0.90;0.52;;;;;;;;;;4936523;29;20513;-70
2022/08/22 17:16:18;;;;;;;1.10;0.52;;;;;;;;;;4937579;29;20043;-70
2022/08/22 17:18:44;;;;;;;0.40;0.38;;;;;;;;;;4937267;29;20028;-70
2022/08/22 17:21:14;;;;;;;1.15;0.50;;;;;;;;;;4937366;29;20030;-70
2022/08/22 17:23:51;;;;;;;0.77;0.53;;;;;;;;;;4937391;29;20028;-70
2022/08/22 17:26:33;;;;;;;0.50;0.50;;;;;;;;;;4937296;29;20039;-70
2022/08/22 17:28:59;;;;;;;0.52;0.40;;;;;;;;;;4937351;29;20038;-70
2022/08/22 17:31:41;;;;;;;0.63;0.50;;;;;;;;;;4936865;29;20046;-70
2022/08/22 17:34:16;;;;;;;1.27;0.60;;;;;;;;;;4937215;29;20019;-69
2022/08/22 17:36:51;;;;;;;0.68;0.40;;;;;;;;;;4937215;29;20367;-70
2022/08/22 17:39:21;;;;;;;0.40;0.40;;;;;;;;;;4937231;29;20426;-70
2022/08/22 17:41:50;;;;;;;3.50;0.47;;;;;;;;;;4937145;29;20034;-69
2022/08/22 17:44:30;;;;;;;0.30;0.30;;;;;;;;;;4937185;29;20027;-70
2022/08/22 17:46:56;;;;;;;1.30;0.40;;;;;;;;;;4935398;29;20031;-70
2022/08/22 17:49:23;;;;;;;0.70;0.30;;;;;;;;;;4936803;29;20024;-70
2022/08/22 17:51:59;;;;;;;1.90;0.40;;;;;;;;;;4936905;29;20039;-70
2022/08/22 17:54:44;;;;;;;3.38;0.38;;;;;;;;;;4936877;29;20074;-70
2022/08/22 17:57:13;;;;;;;1.05;0.40;;;;;;;;;;4951409;29;20023;-70
2022/08/22 17:59:46;;;;;;;0.85;0.32;;;;;;;;;;4918093;29;20046;-70
2022/08/22 18:02:21;;;;;;;0.52;0.30;;;;;;;;;;4917306;29;20435;-70
2022/08/22 18:05:06;;;;;;;1.33;0.43;;;;;;;;;;4932307;29;20036;-70
2022/08/22 18:07:52;;;;;;;1.17;0.50;;;;;;;;;;4917632;29;20046;-69
2022/08/22 18:10:22;;;;;;;1.10;0.60;;;;;;;;;;4917504;29;20052;-70
2022/08/22 18:13:07;;;;;;;1.33;0.50;;;;;;;;;;4917718;29;20030;-70
2022/08/22 18:15:39;;;;;;;0.50;0.45;;;;;;;;;;4917314;29;20025;-70
2022/08/22 18:18:28;;;;;;;1.15;0.60;;;;;;;;;;4917858;29;20074;-70
2022/08/22 18:21:13;;;;;;;0.52;0.35;;;;;;;;;;4927316;29;20036;-70
2022/08/22 18:23:44;;;;;;;2.17;0.38;;;;;;;;;;4917411;29;20028;-70
2022/08/22 18:26:10;;;;;;;;;;;;;;;;;;4918084;29;20038;-70
2022/08/22 18:28:42;;;;;;;2.20;0.47;;;;;;;;;;4917249;29;19962;-70
2022/08/22 18:31:19;;;;;;;0.57;0.45;;;;;;;;;;4916801;29;20040;-70
2022/08/22 18:33:50;;;;;;;1.48;0.47;;;;;;;;;;4917171;29;20033;-70
2022/08/22 18:36:16;;;;;;;2.08;0.30;;;;;;;;;;4917185;29;20028;-70
2022/08/22 18:38:49;;;;;;;3.60;0.40;;;;;;;;;;4917196;29;20354;-70
2022/08/22 18:41:22;;;;;;;2.33;0.95;;;;;;;;;;4917041;29;20024;-70
2022/08/22 18:43:49;;;;;;;4.57;2.90;;;;;;;;;;4916685;29;20036;-69
2022/08/22 18:46:30;;;;;;;1.55;1.05;;;;;;;;;;4916942;29;20394;-70
2022/08/22 18:48:58;;;;;;;0.95;0.60;;;;;;;;;;4917016;29;20032;-70
2022/08/22 18:51:42;;;;;;;0.70;0.70;;;;;;;;;;4916976;29;20414;-70
2022/08/22 18:54:12;;;;;;;2.15;0.50;;;;;;;;;;4916827;29;20050;-69
2022/08/22 18:56:54;;;;;;;1.27;0.43;;;;;;;;;;4933430;29;20173;-70
2022/08/22 18:59:20;;;;;;;0.50;0.50;;;;;;;;;;4935235;29;20039;-70
2022/08/22 19:01:46;;;;;;;3.03;0.50;;;;;;;;;;4936041;29;20434;-70
2022/08/22 19:04:31;;;;;;;0.77;0.47;;;;;;;;;;4935939;29;20031;-69
2022/08/22 19:06:58;;;;;;;0.40;0.30;;;;;;;;;;4935928;29;20027;-70
2022/08/22 19:09:24;;;;;;;1.08;0.50;;;;;;;;;;4935613;29;20054;-70
2022/08/22 19:12:03;;;;;;;0.95;0.50;;;;;;;;;;4934158;29;20102;-70
2022/08/22 19:14:41;;;;;;;0.73;0.43;;;;;;;;;;4935219;29;20036;-70
2022/08/22 19:17:26;;;;;;;1.00;0.40;;;;;;;;;;4935448;29;20024;-70
2022/08/22 19:22:37;;;;;;;2.33;0.40;;;;;;;;;;4935395;29;20410;-70
2022/08/22 19:25:30;;;;;;;4.07;0.40;;;;;;;;;;4935460;29;20024;-70
2022/08/22 19:27:56;;;;;;;1.23;0.47;;;;;;;;;;4934258;29;20036;-70
2022/08/22 19:30:41;;;;;;;0.65;0.40;;;;;;;;;;4935300;29;20034;-70
2022/08/22 19:33:15;;;;;;;0.85;0.40;;;;;;;;;;4935446;29;20024;-70
2022/08/22 19:36:03;;;;;;;3.35;0.38;;;;;;;;;;4935312;29;20524;-70
2022/08/22 19:38:48;;;;;;;0.50;0.50;;;;;;;;;;4935423;29;20090;-70
2022/08/22 19:41:34;;;;;;;0.40;0.40;;;;;;;;;;4935663;29;20032;-70
2022/08/22 19:44:00;;;;;;;2.40;0.40;;;;;;;;;;4934979;29;20024;-69
2022/08/22 19:46:34;;;;;;;2.05;0.40;;;;;;;;;;4935619;29;20034;-70
2022/08/22 19:49:01;;;;;;;3.88;0.50;;;;;;;;;;4935391;29;20028;-70
2022/08/22 19:51:28;;;;;;;1.50;0.50;;;;;;;;;;4935260;29;20528;-70
2022/08/22 19:54:00;;;;;;;0.82;0.50;;;;;;;;;;4935378;29;20024;-70
2022/08/22 19:56:26;;;;;;;2.85;0.40;;;;;;;;;;4934756;29;20019;-70
2022/08/22 19:59:04;;;;;;;0.35;0.30;;;;;;;;;;4935296;29;20082;-70
2022/08/22 20:01:45;;;;;;;2.17;0.60;;;;;;;;;;4934893;29;20020;-70
2022/08/22 20:04:19;;;;;;;1.73;0.40;;;;;;;;;;4935083;29;20026;-70
2022/08/22 20:07:06;;;;;;;0.88;0.40;;;;;;;;;;4934906;29;20053;-70
2022/08/22 20:09:55;;;;;;;1.65;0.63;;;;;;;;;;4934981;29;20047;-70
2022/08/22 20:12:42;;;;;;;0.77;0.43;;;;;;;;;;4934535;29;20052;-69
2022/08/22 20:15:15;;;;;;;1.30;0.40;;;;;;;;;;4935597;29;20034;-69
2022/08/22 20:17:42;;;;;;;0.82;0.40;;;;;;;;;;4933771;29;20023;-69
2022/08/22 20:20:10;;;;;;;0.55;0.40;;;;;;;;;;4935309;29;20382;-69
2022/08/22 20:22:39;;;;;;;0.55;0.38;;;;;;;;;;4934979;29;20032;-69
2022/08/22 20:25:06;;;;;;;0.38;0.38;;;;;;;;;;4934990;29;20036;-69
2022/08/22 20:27:35;;;;;;;0.30;0.30;;;;;;;;;;4936170;29;20030;-70
2022/08/22 20:30:14;;;;;;;0.40;0.40;;;;;;;;;;4938209;29;20494;-70
2022/08/22 20:32:51;;;;;;;0.63;0.40;;;;;;;;;;4938325;29;20028;-70
2022/08/22 20:35:19;;;;;;;0.30;0.30;;;;;;;;;;4938748;29;20087;-70
2022/08/22 20:37:50;;;;;;;0.82;0.40;;;;;;;;;;4938519;29;20027;-70
2022/08/22 20:40:17;;;;;;;;;;;;;;;;;;4938508;29;20106;-70
2022/08/22 20:42:44;;;;;;;0.43;0.40;;;;;;;;;;4938408;29;19929;-70
2022/08/22 20:45:12;;;;;;;0.50;0.50;;;;;;;;;;4938058;29;20027;-69
2022/08/22 20:47:38;;;;;;;0.47;0.47;;;;;;;;;;4938192;29;20034;-70
2022/08/22 20:50:10;;;;;;;1.23;0.47;;;;;;;;;;4938143;29;20030;-70
2022/08/22 20:52:40;;;;;;;0.30;0.30;;;;;;;;;;4937998;29;20023;-70
2022/08/22 20:55:17;;;;;;;1.13;0.50;;;;;;;;;;4937915;29;20024;-70
2022/08/22 20:57:58;;;;;;;0.30;0.30;;;;;;;;;;4937629;29;20022;-70
2022/08/22 21:00:27;;;;;;;1.00;0.40;;;;;;;;;;4937933;29;20012;-70
2022/08/22 21:02:54;;;;;;;0.93;0.50;;;;;;;;;;4937915;29;20030;-69
2022/08/22 21:05:22;;;;;;;2.38;0.40;;;;;;;;;;4938013;29;20591;-68
2022/08/22 21:08:09;;;;;;;0.80;0.40;;;;;;;;;;4937933;29;20522;-68
2022/08/22 21:13:24;;;;;;;1.20;0.60;;;;;;;;;;4937881;29;20023;-68
2022/08/22 21:15:56;;;;;;;1.13;0.60;;;;;;;;;;4938171;29;20024;-70
2022/08/22 21:18:31;;;;;;;0.95;0.50;;;;;;;;;;4937727;29;20024;-70
2022/08/22 21:21:06;;;;;;;1.27;0.40;;;;;;;;;;4937674;29;20186;-70
2022/08/22 21:23:33;;;;;;;3.65;0.50;;;;;;;;;;4937533;29;20024;-70
2022/08/22 21:26:02;;;;;;;1.02;0.50;;;;;;;;;;4937499;29;20028;-70
2022/08/22 21:28:40;;;;;;;0.38;0.38;;;;;;;;;;4937820;29;20027;-70
2022/08/22 21:31:14;;;;;;;0.40;0.40;;;;;;;;;;4937489;29;20028;-69
2022/08/22 21:33:42;;;;;;;0.47;0.47;;;;;;;;;;4937541;29;20524;-70
2022/08/22 21:36:10;;;;;;;2.13;0.40;;;;;;;;;;4937246;29;20027;-70
2022/08/22 21:38:36;;;;;;;0.52;0.52;;;;;;;;;;4951740;28;20034;-70